Terminal Aerodrome Forecast
Issued by NWS Mt. Holly, NJ

Home | Current Version | Previous Version | Text Only | Print | Product List | Glossary On
Versions: 1 2 3 4 5 6 7 8 9 10 11 12 13 14 15 16 17 18 19 20 21 22 23 24 25 26 27 28 29
000
FTUS41 KPHI 270200 AAA
TAFTTN
TAF AMD
KTTN 270230Z 2702/2724 04020G26KT 5SM -SN SCT015 OVC030
     FM270600 01020G29KT 1 1/2SM -SN SCT004 OVC010
     FM271500 36018G28KT 2SM -SN BLSN OVC010
     FM271900 35017G27KT 3SM -SN BLSN OVC015
     FM272300 32015G26KT 6SM -SN BLSN SCT025 BKN080=

USA.gov is the U.S. government's official web portal to all federal, state and local government web resources and services.